sensor_id;sensor_type;location;lat;lon;timestamp;pressure;altitude;pressure_sealevel;temperature
59339;BMP280;45117;50.960;5.500;2022-12-18T00:01:58;101816.66;;;-8.03
59339;BMP280;45117;50.960;5.500;2022-12-18T00:04:26;101828.53;;;-8.07
59339;BMP280;45117;50.960;5.500;2022-12-18T00:06:53;101837.28;;;-8.13
59339;BMP280;45117;50.960;5.500;2022-12-18T00:09:20;101827.97;;;-8.09
59339;BMP280;45117;50.960;5.500;2022-12-18T00:11:46;101842.00;;;-8.10
59339;BMP280;45117;50.960;5.500;2022-12-18T00:14:13;101831.59;;;-8.10
59339;BMP280;45117;50.960;5.500;2022-12-18T00:16:45;101828.00;;;-8.21
59339;BMP280;45117;50.960;5.500;2022-12-18T00:19:12;101822.81;;;-8.21
59339;BMP280;45117;50.960;5.500;2022-12-18T00:21:38;101826.88;;;-8.13
59339;BMP280;45117;50.960;5.500;2022-12-18T00:24:06;101815.00;;;-8.21
59339;BMP280;45117;50.960;5.500;2022-12-18T00:26:34;101816.56;;;-8.20
59339;BMP280;45117;50.960;5.500;2022-12-18T00:29:03;101816.69;;;-8.27
59339;BMP280;45117;50.960;5.500;2022-12-18T00:31:30;101823.38;;;-8.31
59339;BMP280;45117;50.960;5.500;2022-12-18T00:33:58;101823.50;;;-8.26
59339;BMP280;45117;50.960;5.500;2022-12-18T00:36:27;101816.94;;;-8.28
59339;BMP280;45117;50.960;5.500;2022-12-18T00:38:54;101813.22;;;-8.32
59339;BMP280;45117;50.960;5.500;2022-12-18T00:41:21;101822.28;;;-8.35
59339;BMP280;45117;50.960;5.500;2022-12-18T00:44:02;101825.00;;;-8.42
59339;BMP280;45117;50.960;5.500;2022-12-18T00:46:29;101803.41;;;-8.54
59339;BMP280;45117;50.960;5.500;2022-12-18T00:48:56;101826.91;;;-8.49
59339;BMP280;45117;50.960;5.500;2022-12-18T00:51:24;101821.97;;;-8.50
59339;BMP280;45117;50.960;5.500;2022-12-18T00:53:51;101815.97;;;-8.51
59339;BMP280;45117;50.960;5.500;2022-12-18T00:56:17;101801.59;;;-8.42
59339;BMP280;45117;50.960;5.500;2022-12-18T00:58:44;101807.50;;;-8.46
59339;BMP280;45117;50.960;5.500;2022-12-18T01:01:10;101804.09;;;-8.47
59339;BMP280;45117;50.960;5.500;2022-12-18T01:03:37;101808.34;;;-8.41
59339;BMP280;45117;50.960;5.500;2022-12-18T01:06:06;101801.69;;;-8.48
59339;BMP280;45117;50.960;5.500;2022-12-18T01:08:34;101799.31;;;-8.50
59339;BMP280;45117;50.960;5.500;2022-12-18T01:11:01;101796.28;;;-8.47
59339;BMP280;45117;50.960;5.500;2022-12-18T01:13:27;101779.22;;;-8.54
59339;BMP280;45117;50.960;5.500;2022-12-18T01:15:53;101774.47;;;-8.46
59339;BMP280;45117;50.960;5.500;2022-12-18T01:18:20;101782.25;;;-8.46
59339;BMP280;45117;50.960;5.500;2022-12-18T01:20:46;101778.63;;;-8.45
59339;BMP280;45117;50.960;5.500;2022-12-18T01:23:13;101795.28;;;-8.46
59339;BMP280;45117;50.960;5.500;2022-12-18T01:25:41;101798.78;;;-8.52
59339;BMP280;45117;50.960;5.500;2022-12-18T01:28:07;101799.13;;;-8.60
59339;BMP280;45117;50.960;5.500;2022-12-18T01:30:34;101796.41;;;-8.65
59339;BMP280;45117;50.960;5.500;2022-12-18T01:33:00;101800.84;;;-8.66
59339;BMP280;45117;50.960;5.500;2022-12-18T01:35:27;101798.47;;;-8.67
59339;BMP280;45117;50.960;5.500;2022-12-18T01:37:54;101801.50;;;-8.70
59339;BMP280;45117;50.960;5.500;2022-12-18T01:40:20;101805.69;;;-8.69
59339;BMP280;45117;50.960;5.500;2022-12-18T01:42:51;101800.38;;;-8.74
59339;BMP280;45117;50.960;5.500;2022-12-18T01:45:24;101795.28;;;-8.69
59339;BMP280;45117;50.960;5.500;2022-12-18T01:47:53;101788.50;;;-8.70
59339;BMP280;45117;50.960;5.500;2022-12-18T01:50:21;101794.16;;;-8.73
59339;BMP280;45117;50.960;5.500;2022-12-18T01:52:52;101798.44;;;-8.79
59339;BMP280;45117;50.960;5.500;2022-12-18T01:55:22;101790.78;;;-8.74
59339;BMP280;45117;50.960;5.500;2022-12-18T01:57:52;101793.38;;;-8.74
59339;BMP280;45117;50.960;5.500;2022-12-18T02:00:21;101800.63;;;-8.76
59339;BMP280;45117;50.960;5.500;2022-12-18T02:02:48;101792.03;;;-8.88
59339;BMP280;45117;50.960;5.500;2022-12-18T02:05:18;101794.28;;;-8.68
59339;BMP280;45117;50.960;5.500;2022-12-18T02:07:51;101788.84;;;-8.55
59339;BMP280;45117;50.960;5.500;2022-12-18T02:10:26;101782.38;;;-8.52
59339;BMP280;45117;50.960;5.500;2022-12-18T02:12:58;101786.47;;;-8.56
59339;BMP280;45117;50.960;5.500;2022-12-18T02:15:33;101792.31;;;-8.49
59339;BMP280;45117;50.960;5.500;2022-12-18T02:18:06;101788.13;;;-8.50
59339;BMP280;45117;50.960;5.500;2022-12-18T02:20:36;101778.50;;;-8.38
59339;BMP280;45117;50.960;5.500;2022-12-18T02:23:12;101783.03;;;-8.33
59339;BMP280;45117;50.960;5.500;2022-12-18T02:25:55;101787.72;;;-8.47
59339;BMP280;45117;50.960;5.500;2022-12-18T02:28:30;101779.63;;;-8.34
59339;BMP280;45117;50.960;5.500;2022-12-18T02:30:58;101778.13;;;-8.30
59339;BMP280;45117;50.960;5.500;2022-12-18T02:33:27;101780.50;;;-8.28
59339;BMP280;45117;50.960;5.500;2022-12-18T02:35:54;101773.47;;;-8.28
59339;BMP280;45117;50.960;5.500;2022-12-18T02:38:24;101769.13;;;-8.39
59339;BMP280;45117;50.960;5.500;2022-12-18T02:40:53;101762.66;;;-8.36
59339;BMP280;45117;50.960;5.500;2022-12-18T02:43:20;101762.28;;;-8.28
59339;BMP280;45117;50.960;5.500;2022-12-18T02:45:48;101766.63;;;-8.34
59339;BMP280;45117;50.960;5.500;2022-12-18T02:48:17;101761.84;;;-8.25
59339;BMP280;45117;50.960;5.500;2022-12-18T02:50:47;101754.47;;;-8.28
59339;BMP280;45117;50.960;5.500;2022-12-18T02:53:23;101733.13;;;-8.30
59339;BMP280;45117;50.960;5.500;2022-12-18T02:56:01;101745.94;;;-8.12
59339;BMP280;45117;50.960;5.500;2022-12-18T02:58:34;101744.00;;;-8.05
59339;BMP280;45117;50.960;5.500;2022-12-18T03:01:07;101739.56;;;-8.04
59339;BMP280;45117;50.960;5.500;2022-12-18T03:03:39;101733.09;;;-8.02
59339;BMP280;45117;50.960;5.500;2022-12-18T03:06:10;101727.50;;;-7.94
59339;BMP280;45117;50.960;5.500;2022-12-18T03:08:42;101732.16;;;-7.96
59339;BMP280;45117;50.960;5.500;2022-12-18T03:11:12;101721.88;;;-8.02
59339;BMP280;45117;50.960;5.500;2022-12-18T03:13:44;101717.72;;;-8.03
59339;BMP280;45117;50.960;5.500;2022-12-18T03:16:18;101712.50;;;-8.03
59339;BMP280;45117;50.960;5.500;2022-12-18T03:18:48;101715.50;;;-7.95
59339;BMP280;45117;50.960;5.500;2022-12-18T03:21:19;101711.47;;;-8.02
59339;BMP280;45117;50.960;5.500;2022-12-18T03:23:49;101721.72;;;-8.12
59339;BMP280;45117;50.960;5.500;2022-12-18T03:26:21;101723.50;;;-8.01
59339;BMP280;45117;50.960;5.500;2022-12-18T03:28:51;101711.13;;;-8.06
59339;BMP280;45117;50.960;5.500;2022-12-18T03:31:19;101726.69;;;-8.11
59339;BMP280;45117;50.960;5.500;2022-12-18T03:33:52;101737.81;;;-7.99
59339;BMP280;45117;50.960;5.500;2022-12-18T03:36:19;101726.88;;;-8.01
59339;BMP280;45117;50.960;5.500;2022-12-18T03:38:46;101727.41;;;-7.99
59339;BMP280;45117;50.960;5.500;2022-12-18T03:41:19;101725.53;;;-8.03
59339;BMP280;45117;50.960;5.500;2022-12-18T03:43:51;101721.72;;;-7.96
59339;BMP280;45117;50.960;5.500;2022-12-18T03:46:25;101715.69;;;-8.01
59339;BMP280;45117;50.960;5.500;2022-12-18T03:48:58;101711.78;;;-7.99
59339;BMP280;45117;50.960;5.500;2022-12-18T03:51:28;101713.38;;;-7.98
59339;BMP280;45117;50.960;5.500;2022-12-18T03:53:58;101700.97;;;-8.07
59339;BMP280;45117;50.960;5.500;2022-12-18T03:56:29;101699.16;;;-8.07
59339;BMP280;45117;50.960;5.500;2022-12-18T03:58:57;101702.22;;;-8.10
59339;BMP280;45117;50.960;5.500;2022-12-18T04:01:29;101695.44;;;-8.11
59339;BMP280;45117;50.960;5.500;2022-12-18T04:03:58;101689.47;;;-8.11
59339;BMP280;45117;50.960;5.500;2022-12-18T04:06:26;101697.25;;;-8.11
59339;BMP280;45117;50.960;5.500;2022-12-18T04:08:53;101697.41;;;-8.18
59339;BMP280;45117;50.960;5.500;2022-12-18T04:11:20;101692.75;;;-8.16
59339;BMP280;45117;50.960;5.500;2022-12-18T04:13:48;101687.78;;;-8.18
59339;BMP280;45117;50.960;5.500;2022-12-18T04:16:15;101688.66;;;-8.12
59339;BMP280;45117;50.960;5.500;2022-12-18T04:18:42;101692.84;;;-8.11
59339;BMP280;45117;50.960;5.500;2022-12-18T04:21:09;101694.13;;;-8.13
59339;BMP280;45117;50.960;5.500;2022-12-18T04:23:36;101684.13;;;-8.05
59339;BMP280;45117;50.960;5.500;2022-12-18T04:26:02;101702.88;;;-8.03
59339;BMP280;45117;50.960;5.500;2022-12-18T04:28:29;101714.34;;;-8.04
59339;BMP280;45117;50.960;5.500;2022-12-18T04:30:57;101708.88;;;-8.02
59339;BMP280;45117;50.960;5.500;2022-12-18T04:33:23;101716.94;;;-8.04
59339;BMP280;45117;50.960;5.500;2022-12-18T04:35:49;101732.16;;;-7.96
59339;BMP280;45117;50.960;5.500;2022-12-18T04:38:16;101719.69;;;-7.94
59339;BMP280;45117;50.960;5.500;2022-12-18T04:40:43;101720.16;;;-7.97
59339;BMP280;45117;50.960;5.500;2022-12-18T04:43:09;101719.97;;;-8.07
59339;BMP280;45117;50.960;5.500;2022-12-18T04:45:36;101717.84;;;-8.10
59339;BMP280;45117;50.960;5.500;2022-12-18T04:48:04;101718.34;;;-8.13
59339;BMP280;45117;50.960;5.500;2022-12-18T04:50:31;101701.22;;;-8.09
59339;BMP280;45117;50.960;5.500;2022-12-18T04:52:58;101701.22;;;-8.09
59339;BMP280;45117;50.960;5.500;2022-12-18T04:55:24;101701.75;;;-8.07
59339;BMP280;45117;50.960;5.500;2022-12-18T04:57:51;101704.34;;;-8.07
59339;BMP280;45117;50.960;5.500;2022-12-18T05:00:18;101704.94;;;-8.05
59339;BMP280;45117;50.960;5.500;2022-12-18T05:02:44;101696.09;;;-8.04
59339;BMP280;45117;50.960;5.500;2022-12-18T05:05:12;101694.19;;;-8.08
59339;BMP280;45117;50.960;5.500;2022-12-18T05:07:39;101687.63;;;-8.11
59339;BMP280;45117;50.960;5.500;2022-12-18T05:10:06;101685.81;;;-8.10
59339;BMP280;45117;50.960;5.500;2022-12-18T05:12:33;101698.38;;;-8.07
59339;BMP280;45117;50.960;5.500;2022-12-18T05:15:19;101697.72;;;-8.14
59339;BMP280;45117;50.960;5.500;2022-12-18T05:17:45;101706.19;;;-8.07
59339;BMP280;45117;50.960;5.500;2022-12-18T05:20:13;101701.69;;;-8.12
59339;BMP280;45117;50.960;5.500;2022-12-18T05:22:40;101700.91;;;-8.12
59339;BMP280;45117;50.960;5.500;2022-12-18T05:25:07;101696.72;;;-8.13
59339;BMP280;45117;50.960;5.500;2022-12-18T05:27:34;101704.53;;;-8.13
59339;BMP280;45117;50.960;5.500;2022-12-18T05:30:00;101703.16;;;-8.16
59339;BMP280;45117;50.960;5.500;2022-12-18T05:32:27;101715.16;;;-8.15
59339;BMP280;45117;50.960;5.500;2022-12-18T05:34:53;101725.47;;;-8.20
59339;BMP280;45117;50.960;5.500;2022-12-18T05:37:21;101719.13;;;-8.12
59339;BMP280;45117;50.960;5.500;2022-12-18T05:39:47;101721.94;;;-8.14
59339;BMP280;45117;50.960;5.500;2022-12-18T05:42:14;101721.38;;;-8.16
59339;BMP280;45117;50.960;5.500;2022-12-18T05:44:40;101719.91;;;-8.12
59339;BMP280;45117;50.960;5.500;2022-12-18T05:47:07;101707.69;;;-8.11
59339;BMP280;45117;50.960;5.500;2022-12-18T05:49:33;101713.66;;;-8.11
59339;BMP280;45117;50.960;5.500;2022-12-18T05:52:00;101708.38;;;-8.16
59339;BMP280;45117;50.960;5.500;2022-12-18T05:54:29;101704.53;;;-8.13
59339;BMP280;45117;50.960;5.500;2022-12-18T05:56:56;101700.66;;;-8.11
59339;BMP280;45117;50.960;5.500;2022-12-18T05:59:22;101695.81;;;-8.19
59339;BMP280;45117;50.960;5.500;2022-12-18T06:01:49;101694.34;;;-8.15
59339;BMP280;45117;50.960;5.500;2022-12-18T06:04:15;101704.97;;;-8.17
59339;BMP280;45117;50.960;5.500;2022-12-18T06:06:42;101709.63;;;-8.19
59339;BMP280;45117;50.960;5.500;2022-12-18T06:09:08;101700.13;;;-8.13
59339;BMP280;45117;50.960;5.500;2022-12-18T06:11:37;101718.25;;;-8.18
59339;BMP280;45117;50.960;5.500;2022-12-18T06:14:04;101719.25;;;-8.19
59339;BMP280;45117;50.960;5.500;2022-12-18T06:16:31;101708.94;;;-8.14
59339;BMP280;45117;50.960;5.500;2022-12-18T06:18:59;101718.25;;;-8.18
59339;BMP280;45117;50.960;5.500;2022-12-18T06:21:25;101713.72;;;-8.23
59339;BMP280;45117;50.960;5.500;2022-12-18T06:23:52;101699.56;;;-8.27
59339;BMP280;45117;50.960;5.500;2022-12-18T06:26:19;101707.97;;;-8.25
59339;BMP280;45117;50.960;5.500;2022-12-18T06:28:47;101703.56;;;-8.24
59339;BMP280;45117;50.960;5.500;2022-12-18T06:31:13;101708.66;;;-8.29
59339;BMP280;45117;50.960;5.500;2022-12-18T06:33:40;101709.09;;;-8.21
59339;BMP280;45117;50.960;5.500;2022-12-18T06:36:09;101705.13;;;-8.23
59339;BMP280;45117;50.960;5.500;2022-12-18T06:38:38;101715.00;;;-8.25
59339;BMP280;45117;50.960;5.500;2022-12-18T06:41:06;101709.88;;;-8.20
59339;BMP280;45117;50.960;5.500;2022-12-18T06:43:33;101709.34;;;-8.22
59339;BMP280;45117;50.960;5.500;2022-12-18T06:46:01;101703.56;;;-8.24
59339;BMP280;45117;50.960;5.500;2022-12-18T06:48:28;101698.09;;;-8.23
59339;BMP280;45117;50.960;5.500;2022-12-18T06:50:54;101704.34;;;-8.24
59339;BMP280;45117;50.960;5.500;2022-12-18T06:53:21;101705.75;;;-8.33
59339;BMP280;45117;50.960;5.500;2022-12-18T06:55:47;101707.38;;;-8.27
59339;BMP280;45117;50.960;5.500;2022-12-18T06:58:14;101707.63;;;-8.28
59339;BMP280;45117;50.960;5.500;2022-12-18T07:00:40;101707.72;;;-8.23
59339;BMP280;45117;50.960;5.500;2022-12-18T07:03:08;101697.56;;;-8.25
59339;BMP280;45117;50.960;5.500;2022-12-18T07:05:39;101685.91;;;-8.22
59339;BMP280;45117;50.960;5.500;2022-12-18T07:08:06;101689.28;;;-8.22
59339;BMP280;45117;50.960;5.500;2022-12-18T07:10:33;101686.44;;;-8.20
59339;BMP280;45117;50.960;5.500;2022-12-18T07:12:59;101680.22;;;-8.19
59339;BMP280;45117;50.960;5.500;2022-12-18T07:15:25;101671.47;;;-8.13
59339;BMP280;45117;50.960;5.500;2022-12-18T07:17:52;101675.91;;;-8.13
59339;BMP280;45117;50.960;5.500;2022-12-18T07:20:20;101666.81;;;-8.11
59339;BMP280;45117;50.960;5.500;2022-12-18T07:22:46;101654.84;;;-8.12
59339;BMP280;45117;50.960;5.500;2022-12-18T07:25:13;101650.41;;;-8.11
59339;BMP280;45117;50.960;5.500;2022-12-18T07:27:39;101645.06;;;-8.05
59339;BMP280;45117;50.960;5.500;2022-12-18T07:30:07;101649.78;;;-8.02
59339;BMP280;45117;50.960;5.500;2022-12-18T07:32:34;101633.69;;;-7.99
59339;BMP280;45117;50.960;5.500;2022-12-18T07:35:00;101637.16;;;-7.93
59339;BMP280;45117;50.960;5.500;2022-12-18T07:37:28;101642.19;;;-7.86
59339;BMP280;45117;50.960;5.500;2022-12-18T07:39:54;101637.34;;;-7.83
59339;BMP280;45117;50.960;5.500;2022-12-18T07:42:21;101634.25;;;-7.80
59339;BMP280;45117;50.960;5.500;2022-12-18T07:44:56;101641.81;;;-7.78
59339;BMP280;45117;50.960;5.500;2022-12-18T07:47:23;101642.47;;;-7.71
59339;BMP280;45117;50.960;5.500;2022-12-18T07:49:50;101637.00;;;-7.70
59339;BMP280;45117;50.960;5.500;2022-12-18T07:52:16;101628.94;;;-7.68
59339;BMP280;45117;50.960;5.500;2022-12-18T07:54:44;101629.88;;;-7.57
59339;BMP280;45117;50.960;5.500;2022-12-18T07:57:11;101622.09;;;-7.52
59339;BMP280;45117;50.960;5.500;2022-12-18T07:59:37;101616.50;;;-7.44
59339;BMP280;45117;50.960;5.500;2022-12-18T08:02:04;101612.44;;;-7.35
59339;BMP280;45117;50.960;5.500;2022-12-18T08:04:30;101618.50;;;-7.29
59339;BMP280;45117;50.960;5.500;2022-12-18T08:06:57;101605.28;;;-7.22
59339;BMP280;45117;50.960;5.500;2022-12-18T08:09:23;101607.16;;;-7.18
59339;BMP280;45117;50.960;5.500;2022-12-18T08:11:51;101609.81;;;-7.13
59339;BMP280;45117;50.960;5.500;2022-12-18T08:14:18;101611.97;;;-7.05
59339;BMP280;45117;50.960;5.500;2022-12-18T08:16:44;101621.47;;;-6.98
59339;BMP280;45117;50.960;5.500;2022-12-18T08:19:11;101622.25;;;-6.98
59339;BMP280;45117;50.960;5.500;2022-12-18T08:21:42;101616.84;;;-6.91
59339;BMP280;45117;50.960;5.500;2022-12-18T08:24:09;101619.28;;;-6.80
59339;BMP280;45117;50.960;5.500;2022-12-18T08:26:36;101606.75;;;-6.83
59339;BMP280;45117;50.960;5.500;2022-12-18T08:29:03;101617.84;;;-6.70
59339;BMP280;45117;50.960;5.500;2022-12-18T08:31:30;101616.03;;;-6.65
59339;BMP280;45117;50.960;5.500;2022-12-18T08:33:58;101633.63;;;-6.55
59339;BMP280;45117;50.960;5.500;2022-12-18T08:36:25;101632.06;;;-6.51
59339;BMP280;45117;50.960;5.500;2022-12-18T08:38:51;101631.63;;;-6.43
59339;BMP280;45117;50.960;5.500;2022-12-18T08:41:19;101624.63;;;-6.37
59339;BMP280;45117;50.960;5.500;2022-12-18T08:43:45;101614.25;;;-6.32
59339;BMP280;45117;50.960;5.500;2022-12-18T08:46:34;101602.28;;;-6.23
59339;BMP280;45117;50.960;5.500;2022-12-18T08:49:02;101590.09;;;-6.12
59339;BMP280;45117;50.960;5.500;2022-12-18T08:51:28;101585.97;;;-6.03
59339;BMP280;45117;50.960;5.500;2022-12-18T08:53:55;101583.97;;;-5.91
59339;BMP280;45117;50.960;5.500;2022-12-18T08:56:21;101593.13;;;-5.78
59339;BMP280;45117;50.960;5.500;2022-12-18T08:58:51;101596.63;;;-5.67
59339;BMP280;45117;50.960;5.500;2022-12-18T09:01:18;101595.63;;;-5.56
59339;BMP280;45117;50.960;5.500;2022-12-18T09:03:46;101602.47;;;-5.45
59339;BMP280;45117;50.960;5.500;2022-12-18T09:06:13;101616.88;;;-5.32
59339;BMP280;45117;50.960;5.500;2022-12-18T09:08:40;101605.69;;;-5.22
59339;BMP280;45117;50.960;5.500;2022-12-18T09:11:12;101611.69;;;-5.17
59339;BMP280;45117;50.960;5.500;2022-12-18T09:13:39;101602.28;;;-5.13
59339;BMP280;45117;50.960;5.500;2022-12-18T09:16:06;101605.19;;;-4.99
59339;BMP280;45117;50.960;5.500;2022-12-18T09:18:32;101601.28;;;-4.86
59339;BMP280;45117;50.960;5.500;2022-12-18T09:21:07;101591.66;;;-4.75
59339;BMP280;45117;50.960;5.500;2022-12-18T09:23:34;101576.69;;;-4.80
59339;BMP280;45117;50.960;5.500;2022-12-18T09:26:00;101572.50;;;-4.60
59339;BMP280;45117;50.960;5.500;2022-12-18T09:28:27;101569.91;;;-4.66
59339;BMP280;45117;50.960;5.500;2022-12-18T09:30:53;101578.50;;;-4.45
59339;BMP280;45117;50.960;5.500;2022-12-18T09:33:20;101579.56;;;-4.46
59339;BMP280;45117;50.960;5.500;2022-12-18T09:35:46;101564.91;;;-4.36
59339;BMP280;45117;50.960;5.500;2022-12-18T09:38:16;101573.50;;;-4.21
59339;BMP280;45117;50.960;5.500;2022-12-18T09:40:44;101574.00;;;-4.19
59339;BMP280;45117;50.960;5.500;2022-12-18T09:43:15;101561.13;;;-4.05
59339;BMP280;45117;50.960;5.500;2022-12-18T09:45:45;101575.31;;;-3.96
59339;BMP280;45117;50.960;5.500;2022-12-18T09:48:18;101580.16;;;-3.69
59339;BMP280;45117;50.960;5.500;2022-12-18T09:50:45;101575.22;;;-3.75
59339;BMP280;45117;50.960;5.500;2022-12-18T09:53:17;101564.41;;;-3.63
59339;BMP280;45117;50.960;5.500;2022-12-18T09:55:46;101567.53;;;-3.61
59339;BMP280;45117;50.960;5.500;2022-12-18T09:58:19;101573.72;;;-3.42
59339;BMP280;45117;50.960;5.500;2022-12-18T10:00:46;101581.06;;;-3.39
59339;BMP280;45117;50.960;5.500;2022-12-18T10:03:14;101576.34;;;-3.37
59339;BMP280;45117;50.960;5.500;2022-12-18T10:05:48;101581.34;;;-3.40
59339;BMP280;45117;50.960;5.500;2022-12-18T10:08:25;101583.63;;;-3.29
59339;BMP280;45117;50.960;5.500;2022-12-18T10:10:59;101578.72;;;-3.40
59339;BMP280;45117;50.960;5.500;2022-12-18T10:13:31;101571.59;;;-3.35
59339;BMP280;45117;50.960;5.500;2022-12-18T10:16:10;101564.69;;;-3.21
59339;BMP280;45117;50.960;5.500;2022-12-18T10:18:53;101547.94;;;-3.30
59339;BMP280;45117;50.960;5.500;2022-12-18T10:21:26;101565.22;;;-3.18
59339;BMP280;45117;50.960;5.500;2022-12-18T10:24:04;101576.72;;;-3.14
59339;BMP280;45117;50.960;5.500;2022-12-18T10:26:34;101567.09;;;-3.24
59339;BMP280;45117;50.960;5.500;2022-12-18T10:29:01;101568.59;;;-3.18
59339;BMP280;45117;50.960;5.500;2022-12-18T10:31:28;101553.59;;;-3.12
59339;BMP280;45117;50.960;5.500;2022-12-18T10:33:54;101544.88;;;-3.03
59339;BMP280;45117;50.960;5.500;2022-12-18T10:36:22;101538.09;;;-3.09
59339;BMP280;45117;50.960;5.500;2022-12-18T10:38:49;101539.09;;;-3.05
59339;BMP280;45117;50.960;5.500;2022-12-18T10:41:26;101547.13;;;-2.91
59339;BMP280;45117;50.960;5.500;2022-12-18T10:44:10;101542.91;;;-2.87
59339;BMP280;45117;50.960;5.500;2022-12-18T10:46:37;101536.63;;;-2.91
59339;BMP280;45117;50.960;5.500;2022-12-18T10:49:04;101534.03;;;-2.96
59339;BMP280;45117;50.960;5.500;2022-12-18T10:51:33;101525.94;;;-2.94
59339;BMP280;45117;50.960;5.500;2022-12-18T10:54:01;101520.41;;;-2.69
59339;BMP280;45117;50.960;5.500;2022-12-18T10:56:31;101518.84;;;-2.70
59339;BMP280;45117;50.960;5.500;2022-12-18T10:59:00;101522.81;;;-2.73
59339;BMP280;45117;50.960;5.500;2022-12-18T11:01:27;101515.47;;;-2.76
59339;BMP280;45117;50.960;5.500;2022-12-18T11:04:07;101504.34;;;-2.62
59339;BMP280;45117;50.960;5.500;2022-12-18T11:06:52;101493.69;;;-2.76
59339;BMP280;45117;50.960;5.500;2022-12-18T11:09:20;101492.38;;;-2.74
59339;BMP280;45117;50.960;5.500;2022-12-18T11:11:49;101480.25;;;-2.69
59339;BMP280;45117;50.960;5.500;2022-12-18T11:14:21;101483.91;;;-2.71
59339;BMP280;45117;50.960;5.500;2022-12-18T11:16:49;101479.25;;;-2.74
59339;BMP280;45117;50.960;5.500;2022-12-18T11:19:25;101481.34;;;-2.76
59339;BMP280;45117;50.960;5.500;2022-12-18T11:21:52;101474.25;;;-2.75
59339;BMP280;45117;50.960;5.500;2022-12-18T11:24:22;101472.81;;;-2.62
59339;BMP280;45117;50.960;5.500;2022-12-18T11:26:51;101461.28;;;-2.66
59339;BMP280;45117;50.960;5.500;2022-12-18T11:29:23;101460.63;;;-2.53
59339;BMP280;45117;50.960;5.500;2022-12-18T11:31:50;101473.56;;;-2.57
59339;BMP280;45117;50.960;5.500;2022-12-18T11:34:22;101466.16;;;-2.55
59339;BMP280;45117;50.960;5.500;2022-12-18T11:36:49;101473.97;;;-2.50
59339;BMP280;45117;50.960;5.500;2022-12-18T11:39:19;101455.38;;;-2.53
59339;BMP280;45117;50.960;5.500;2022-12-18T11:41:52;101463.34;;;-2.39
59339;BMP280;45117;50.960;5.500;2022-12-18T11:44:39;101472.03;;;-2.39
59339;BMP280;45117;50.960;5.500;2022-12-18T11:47:13;101461.63;;;-2.25
59339;BMP280;45117;50.960;5.500;2022-12-18T11:49:42;101457.91;;;-2.24
59339;BMP280;45117;50.960;5.500;2022-12-18T11:52:16;101455.72;;;-2.17
59339;BMP280;45117;50.960;5.500;2022-12-18T11:54:44;101457.56;;;-2.17
59339;BMP280;45117;50.960;5.500;2022-12-18T11:57:24;101454.38;;;-2.14
59339;BMP280;45117;50.960;5.500;2022-12-18T12:00:02;101447.13;;;-2.04
59339;BMP280;45117;50.960;5.500;2022-12-18T12:02:41;101443.50;;;-2.08
59339;BMP280;45117;50.960;5.500;2022-12-18T12:05:22;101435.25;;;-2.01
59339;BMP280;45117;50.960;5.500;2022-12-18T12:07:56;101438.38;;;-1.99
59339;BMP280;45117;50.960;5.500;2022-12-18T12:10:34;101428.56;;;-1.93
59339;BMP280;45117;50.960;5.500;2022-12-18T12:13:19;101419.31;;;-1.91
59339;BMP280;45117;50.960;5.500;2022-12-18T12:15:56;101422.47;;;-1.89
59339;BMP280;45117;50.960;5.500;2022-12-18T12:18:32;101412.44;;;-1.87
59339;BMP280;45117;50.960;5.500;2022-12-18T12:21:07;101410.88;;;-1.88
59339;BMP280;45117;50.960;5.500;2022-12-18T12:23:41;101425.72;;;-1.78
59339;BMP280;45117;50.960;5.500;2022-12-18T12:26:12;101420.06;;;-1.85
59339;BMP280;45117;50.960;5.500;2022-12-18T12:28:57;101408.59;;;-1.76
59339;BMP280;45117;50.960;5.500;2022-12-18T12:31:34;101402.34;;;-1.80
59339;BMP280;45117;50.960;5.500;2022-12-18T12:34:09;101401.19;;;-1.74
59339;BMP280;45117;50.960;5.500;2022-12-18T12:36:51;101396.91;;;-1.69
59339;BMP280;45117;50.960;5.500;2022-12-18T12:39:22;101388.34;;;-1.61
59339;BMP280;45117;50.960;5.500;2022-12-18T12:41:51;101398.22;;;-1.53
59339;BMP280;45117;50.960;5.500;2022-12-18T12:44:39;101393.47;;;-1.51
59339;BMP280;45117;50.960;5.500;2022-12-18T12:47:14;101397.63;;;-1.50
59339;BMP280;45117;50.960;5.500;2022-12-18T12:49:43;101393.16;;;-1.50
59339;BMP280;45117;50.960;5.500;2022-12-18T12:52:15;101380.19;;;-1.46
59339;BMP280;45117;50.960;5.500;2022-12-18T12:54:43;101368.59;;;-1.45
59339;BMP280;45117;50.960;5.500;2022-12-18T12:57:14;101361.09;;;-1.38
59339;BMP280;45117;50.960;5.500;2022-12-18T12:59:47;101362.75;;;-1.42
59339;BMP280;45117;50.960;5.500;2022-12-18T13:02:22;101352.91;;;-1.36
59339;BMP280;45117;50.960;5.500;2022-12-18T13:04:52;101347.88;;;-1.33
59339;BMP280;45117;50.960;5.500;2022-12-18T13:07:26;101342.03;;;-1.30
59339;BMP280;45117;50.960;5.500;2022-12-18T13:10:14;101342.41;;;-1.22
59339;BMP280;45117;50.960;5.500;2022-12-18T13:12:51;101348.28;;;-1.26
59339;BMP280;45117;50.960;5.500;2022-12-18T13:15:32;101346.63;;;-1.21
59339;BMP280;45117;50.960;5.500;2022-12-18T13:18:19;101344.75;;;-1.21
59339;BMP280;45117;50.960;5.500;2022-12-18T13:20:47;101348.56;;;-1.13
59339;BMP280;45117;50.960;5.500;2022-12-18T13:23:25;101350.00;;;-1.07
59339;BMP280;45117;50.960;5.500;2022-12-18T13:25:53;101344.75;;;-1.07
59339;BMP280;45117;50.960;5.500;2022-12-18T13:28:21;101330.13;;;-1.13
59339;BMP280;45117;50.960;5.500;2022-12-18T13:30:55;101339.97;;;-1.05
59339;BMP280;45117;50.960;5.500;2022-12-18T13:33:49;101334.59;;;-1.00
59339;BMP280;45117;50.960;5.500;2022-12-18T13:36:31;101336.03;;;-0.94
59339;BMP280;45117;50.960;5.500;2022-12-18T13:39:22;101337.44;;;-0.96
59339;BMP280;45117;50.960;5.500;2022-12-18T13:41:50;101338.66;;;-0.94
59339;BMP280;45117;50.960;5.500;2022-12-18T13:44:25;101341.81;;;-0.92
59339;BMP280;45117;50.960;5.500;2022-12-18T13:46:53;101341.81;;;-0.92
59339;BMP280;45117;50.960;5.500;2022-12-18T13:49:23;101328.63;;;-0.92
59339;BMP280;45117;50.960;5.500;2022-12-18T13:51:52;101325.22;;;-0.92
59339;BMP280;45117;50.960;5.500;2022-12-18T13:54:22;101327.25;;;-0.89
59339;BMP280;45117;50.960;5.500;2022-12-18T13:56:50;101333.47;;;-0.85
59339;BMP280;45117;50.960;5.500;2022-12-18T13:59:19;101334.56;;;-0.86
59339;BMP280;45117;50.960;5.500;2022-12-18T14:01:48;101327.25;;;-0.89
59339;BMP280;45117;50.960;5.500;2022-12-18T14:04:21;101324.81;;;-0.86
59339;BMP280;45117;50.960;5.500;2022-12-18T14:06:51;101322.16;;;-0.86
59339;BMP280;45117;50.960;5.500;2022-12-18T14:09:23;101330.25;;;-0.82
59339;BMP280;45117;50.960;5.500;2022-12-18T14:11:50;101339.44;;;-0.80